createdAt,value
2019-05-05T00:02:01.646Z,3.47
2019-05-05T00:04:51.433Z,3.59
2019-05-05T00:07:31.989Z,3.43
2019-05-05T00:10:15.143Z,3.49
2019-05-05T00:13:01.978Z,3.31
2019-05-05T00:16:00.189Z,3.44
2019-05-05T00:18:31.787Z,3.29
2019-05-05T00:21:15.110Z,3.31
2019-05-05T00:23:46.933Z,3.27
2019-05-05T00:26:19.402Z,3.26
2019-05-05T00:28:50.398Z,3.18
2019-05-05T00:31:19.688Z,3.19
2019-05-05T00:33:50.902Z,3.07
2019-05-05T00:36:19.652Z,3.00
2019-05-05T00:38:51.765Z,3.12
2019-05-05T00:41:25.326Z,3.07
2019-05-05T00:43:55.534Z,3.01
2019-05-05T00:46:59.755Z,3.01
2019-05-05T00:49:45.593Z,3.56
2019-05-05T00:52:02.234Z,3.83
2019-05-05T00:54:48.855Z,3.82
2019-05-05T00:57:24.418Z,3.99
2019-05-05T00:59:54.776Z,4.15
2019-05-05T01:02:49.190Z,4.17
2019-05-05T01:05:48.368Z,4.14
2019-05-05T01:08:31.143Z,4.04
2019-05-05T01:11:06.500Z,4.13
2019-05-05T01:13:41.014Z,4.16
2019-05-05T01:16:19.135Z,4.12
2019-05-05T01:18:56.216Z,3.95
2019-05-05T01:21:28.020Z,4.02
2019-05-05T01:24:05.698Z,3.80
2019-05-05T01:26:35.414Z,3.71
2019-05-05T01:29:06.174Z,3.64
2019-05-05T01:31:34.879Z,3.57
2019-05-05T01:34:18.468Z,3.34
2019-05-05T01:36:49.874Z,3.35
2019-05-05T01:39:30.985Z,3.16
2019-05-05T01:42:01.926Z,3.01
2019-05-05T01:44:30.579Z,2.94
2019-05-05T01:46:59.326Z,2.97
2019-05-05T01:49:28.018Z,3.02
2019-05-05T01:51:56.733Z,2.99
2019-05-05T01:54:25.443Z,2.83
2019-05-05T01:56:55.322Z,2.72
2019-05-05T01:59:24.957Z,2.81
2019-05-05T02:01:55.103Z,2.84
2019-05-05T02:04:25.049Z,2.66
2019-05-05T02:06:54.960Z,2.58
2019-05-05T02:09:24.895Z,2.63
2019-05-05T02:11:54.709Z,2.62
2019-05-05T02:14:24.646Z,2.56
2019-05-05T02:16:54.624Z,2.18
2019-05-05T02:19:24.967Z,2.23
2019-05-05T02:21:54.743Z,2.23
2019-05-05T02:24:25.096Z,2.16
2019-05-05T02:26:54.680Z,2.10
2019-05-05T02:29:35.224Z,2.21
2019-05-05T02:32:22.067Z,2.16
2019-05-05T02:34:56.307Z,2.23
2019-05-05T02:37:25.831Z,2.16
2019-05-05T02:40:00.628Z,2.06
2019-05-05T02:42:26.713Z,2.16
2019-05-05T02:44:56.949Z,2.14
2019-05-05T02:47:48.798Z,2.29
2019-05-05T02:50:18.476Z,2.12
2019-05-05T02:52:48.346Z,2.12
2019-05-05T02:55:18.002Z,2.16
2019-05-05T02:57:47.054Z,2.31
2019-05-05T03:00:40.964Z,2.10
2019-05-05T03:03:10.713Z,2.02
2019-05-05T03:05:39.525Z,1.93
2019-05-05T03:08:08.354Z,1.72
2019-05-05T03:10:37.145Z,1.62
2019-05-05T03:13:06.650Z,1.53
2019-05-05T03:15:47.179Z,1.57
2019-05-05T03:18:15.892Z,1.53
2019-05-05T03:20:44.578Z,1.54
2019-05-05T03:23:13.720Z,1.57
2019-05-05T03:25:44.051Z,1.80
2019-05-05T03:28:13.716Z,1.80
2019-05-05T03:30:45.511Z,1.77
2019-05-05T03:33:15.948Z,1.78
2019-05-05T03:35:43.685Z,1.71
2019-05-05T03:38:14.228Z,1.65
2019-05-05T03:40:45.037Z,1.43
2019-05-05T03:43:34.238Z,1.46
2019-05-05T03:46:08.009Z,1.56
2019-05-05T03:48:36.746Z,1.31
2019-05-05T03:51:18.120Z,1.22
2019-05-05T03:53:35.942Z,1.23
2019-05-05T03:56:04.665Z,1.32
2019-05-05T03:58:34.459Z,1.28
2019-05-05T04:01:34.803Z,1.32
2019-05-05T04:04:20.869Z,1.25
2019-05-05T04:06:50.701Z,1.01
2019-05-05T04:09:19.491Z,0.96
2019-05-05T04:11:48.572Z,0.76
2019-05-05T04:14:18.552Z,0.71
2019-05-05T04:17:18.541Z,0.89
2019-05-05T04:19:49.802Z,0.89
2019-05-05T04:22:18.426Z,0.92
2019-05-05T04:24:47.075Z,0.87
2019-05-05T04:27:15.749Z,0.90
2019-05-05T04:29:44.362Z,0.98
2019-05-05T04:32:14.027Z,1.19
2019-05-05T04:34:43.938Z,1.29
2019-05-05T04:37:14.921Z,1.32
2019-05-05T04:39:44.324Z,1.40
2019-05-05T04:42:14.083Z,1.50
2019-05-05T04:44:44.899Z,1.60
2019-05-05T04:47:19.110Z,1.56
2019-05-05T04:49:53.902Z,1.34
2019-05-05T04:52:23.695Z,1.24
2019-05-05T04:54:55.480Z,1.25
2019-05-05T04:57:24.087Z,1.39
2019-05-05T04:59:53.923Z,1.54
2019-05-05T05:02:34.159Z,1.62
2019-05-05T05:05:11.574Z,1.68
2019-05-05T05:07:40.239Z,1.85
2019-05-05T05:10:09.015Z,1.79
2019-05-05T05:12:37.665Z,1.91
2019-05-05T05:15:06.417Z,1.96
2019-05-05T05:17:44.230Z,2.10
2019-05-05T05:20:14.142Z,2.23
2019-05-05T05:22:43.986Z,2.36
2019-05-05T05:25:14.583Z,2.44
2019-05-05T05:27:44.335Z,2.54
2019-05-05T05:30:13.861Z,2.65
2019-05-05T05:32:44.528Z,2.77
2019-05-05T05:35:14.155Z,2.92
2019-05-05T05:37:44.816Z,3.05
2019-05-05T05:40:19.027Z,3.19
2019-05-05T05:42:47.796Z,3.32
2019-05-05T05:45:38.276Z,3.46
2019-05-05T05:48:28.706Z,3.71
2019-05-05T05:51:04.191Z,3.86
2019-05-05T05:53:34.865Z,4.02
2019-05-05T05:56:04.338Z,4.15
2019-05-05T05:58:33.763Z,4.23
2019-05-05T06:01:04.292Z,4.39
2019-05-05T06:03:33.922Z,4.58
2019-05-05T06:06:04.771Z,4.63
2019-05-05T06:08:34.689Z,4.78
2019-05-05T06:11:04.495Z,4.88
2019-05-05T06:13:33.646Z,4.95
2019-05-05T06:16:04.230Z,5.06
2019-05-05T06:18:34.603Z,5.24
2019-05-05T06:21:04.439Z,5.39
2019-05-05T06:23:34.478Z,5.48
2019-05-05T06:26:06.704Z,5.64
2019-05-05T06:28:34.469Z,5.86
2019-05-05T06:31:04.803Z,5.82
2019-05-05T06:33:37.703Z,5.99
2019-05-05T06:36:14.117Z,6.12
2019-05-05T06:38:47.590Z,6.22
2019-05-05T06:41:39.139Z,6.34
2019-05-05T06:44:26.036Z,6.49
2019-05-05T06:47:05.555Z,6.73
2019-05-05T06:49:38.680Z,6.86
2019-05-05T06:52:09.738Z,6.90
2019-05-05T06:54:40.103Z,7.13
2019-05-05T06:57:13.833Z,7.18
2019-05-05T06:59:43.846Z,7.18
2019-05-05T07:02:14.690Z,7.25
2019-05-05T07:04:51.036Z,7.32
2019-05-05T07:07:23.679Z,7.52
2019-05-05T07:09:54.868Z,7.63
2019-05-05T07:12:28.568Z,7.49
2019-05-05T07:14:58.002Z,7.83
2019-05-05T07:17:29.435Z,7.73
2019-05-05T07:19:59.856Z,8.06
2019-05-05T07:22:34.672Z,8.34
2019-05-05T07:25:42.611Z,8.60
2019-05-05T07:28:07.014Z,8.70
2019-05-05T07:30:40.512Z,8.73
2019-05-05T07:33:12.162Z,8.62
2019-05-05T07:36:06.086Z,8.84
2019-05-05T07:38:41.488Z,8.44
2019-05-05T07:41:14.353Z,8.31
2019-05-05T07:43:49.712Z,8.54
2019-05-05T07:46:39.941Z,8.83
2019-05-05T07:49:13.869Z,8.95
2019-05-05T07:51:45.868Z,9.07
2019-05-05T07:54:18.853Z,9.07
2019-05-05T07:56:53.784Z,9.22
2019-05-05T07:59:28.215Z,9.18
2019-05-05T08:01:58.182Z,9.19
2019-05-05T08:04:34.471Z,9.25
2019-05-05T08:07:30.650Z,9.32
2019-05-05T08:10:04.606Z,9.48
2019-05-05T08:12:34.152Z,9.51
2019-05-05T08:15:04.346Z,9.51
2019-05-05T08:17:49.885Z,9.37
2019-05-05T08:20:23.832Z,9.29
2019-05-05T08:22:53.675Z,9.12
2019-05-05T08:25:41.392Z,9.10
2019-05-05T08:28:24.220Z,9.25
2019-05-05T08:31:17.712Z,9.39
2019-05-05T08:33:46.323Z,9.50
2019-05-05T08:36:15.060Z,9.58
2019-05-05T08:38:44.237Z,9.65
2019-05-05T08:41:13.914Z,9.41
2019-05-05T08:43:44.027Z,9.39
2019-05-05T08:46:14.335Z,9.29
2019-05-05T08:48:44.692Z,9.28
2019-05-05T08:51:14.105Z,9.63
2019-05-05T08:53:48.024Z,9.72
2019-05-05T08:56:14.705Z,9.93
2019-05-05T08:58:43.786Z,10.04
2019-05-05T09:01:14.757Z,9.92
2019-05-05T09:03:44.313Z,9.91
2019-05-05T09:06:13.832Z,9.79
2019-05-05T09:08:44.175Z,9.62
2019-05-05T09:11:14.065Z,9.56
2019-05-05T09:13:44.615Z,9.46
2019-05-05T09:16:14.393Z,9.29
2019-05-05T09:19:03.964Z,9.32
2019-05-05T09:21:34.374Z,9.27
2019-05-05T09:24:19.457Z,9.27
2019-05-05T09:27:10.083Z,9.51
2019-05-05T09:29:41.099Z,9.67
2019-05-05T09:32:09.823Z,9.92
2019-05-05T09:34:38.430Z,10.16
2019-05-05T09:37:07.602Z,10.43
2019-05-05T09:39:36.277Z,10.61
2019-05-05T09:42:04.973Z,10.44
2019-05-05T09:44:34.603Z,10.57
2019-05-05T09:47:04.740Z,10.45
2019-05-05T09:49:33.976Z,9.94
2019-05-05T09:52:04.782Z,10.00
2019-05-05T09:54:34.515Z,10.23
2019-05-05T09:57:04.548Z,10.19
2019-05-05T09:59:34.657Z,10.34
2019-05-05T10:02:04.508Z,10.43
2019-05-05T10:04:34.541Z,10.68
2019-05-05T10:07:04.445Z,10.92
2019-05-05T10:09:34.535Z,11.19
2019-05-05T10:12:04.738Z,11.09
2019-05-05T10:14:34.168Z,11.18
2019-05-05T10:17:04.895Z,11.08
2019-05-05T10:19:33.307Z,11.02
2019-05-05T10:22:03.897Z,10.99
2019-05-05T10:24:57.322Z,10.98
2019-05-05T10:27:25.090Z,11.02
2019-05-05T10:29:54.739Z,11.01
2019-05-05T10:32:24.532Z,10.83
2019-05-05T10:35:04.428Z,10.72
2019-05-05T10:37:34.635Z,10.59
2019-05-05T10:40:04.072Z,10.59
2019-05-05T10:42:50.902Z,10.52
2019-05-05T10:45:20.707Z,10.49
2019-05-05T10:47:50.727Z,10.37
2019-05-05T10:50:19.424Z,10.35
2019-05-05T10:52:48.026Z,10.32
2019-05-05T10:55:17.223Z,10.39
2019-05-05T10:57:45.830Z,10.37
2019-05-05T11:00:17.895Z,10.51
2019-05-05T11:02:46.500Z,10.54
2019-05-05T11:05:15.581Z,10.85
2019-05-05T11:07:44.326Z,11.10
2019-05-05T11:10:14.147Z,11.39
2019-05-05T11:12:44.358Z,11.41
2019-05-05T11:15:14.237Z,11.54
2019-05-05T11:17:43.955Z,11.59
2019-05-05T11:20:14.379Z,11.53
2019-05-05T11:22:43.812Z,11.46
2019-05-05T11:25:13.863Z,11.54
2019-05-05T11:27:43.988Z,11.60
2019-05-05T11:30:18.041Z,11.85
2019-05-05T11:33:04.508Z,11.98
2019-05-05T11:35:54.796Z,11.96
2019-05-05T11:38:24.682Z,11.86
2019-05-05T11:40:54.628Z,11.74
2019-05-05T11:43:24.647Z,11.71
2019-05-05T11:45:54.378Z,11.57
2019-05-05T11:48:24.000Z,11.46
2019-05-05T11:50:54.014Z,11.48
2019-05-05T11:53:24.897Z,11.44
2019-05-05T11:55:55.035Z,11.52
2019-05-05T11:58:24.800Z,11.50
2019-05-05T12:00:54.540Z,11.60
2019-05-05T12:03:23.391Z,11.70
2019-05-05T12:05:52.141Z,11.63
2019-05-05T12:08:20.841Z,11.68
2019-05-05T12:11:00.067Z,11.79
2019-05-05T12:13:28.913Z,11.81
2019-05-05T12:16:04.829Z,11.86
2019-05-05T12:18:34.316Z,11.88
2019-05-05T12:21:05.113Z,12.06
2019-05-05T12:23:34.189Z,12.19
2019-05-05T12:26:30.709Z,12.25
2019-05-05T12:29:18.926Z,12.43
2019-05-05T12:31:49.983Z,12.43
2019-05-05T12:34:18.592Z,12.20
2019-05-05T12:36:47.218Z,12.38
2019-05-05T12:39:15.844Z,12.45
2019-05-05T12:41:44.667Z,12.40
2019-05-05T12:44:20.893Z,12.45
2019-05-05T12:46:57.566Z,12.43
2019-05-05T12:49:26.284Z,12.48
2019-05-05T12:51:54.923Z,12.63
2019-05-05T12:54:24.542Z,12.78
2019-05-05T12:56:53.853Z,12.70
2019-05-05T12:59:25.359Z,12.63
2019-05-05T13:01:54.754Z,12.77
2019-05-05T13:04:24.582Z,12.81
2019-05-05T13:06:53.977Z,12.90
2019-05-05T13:09:24.357Z,12.83
2019-05-05T13:11:54.226Z,12.61
2019-05-05T13:14:22.939Z,12.45
2019-05-05T13:16:53.894Z,12.47
2019-05-05T13:19:43.886Z,12.40
2019-05-05T13:22:30.347Z,12.47
2019-05-05T13:25:09.717Z,12.38
2019-05-05T13:27:40.852Z,12.49
2019-05-05T13:30:09.775Z,12.50
2019-05-05T13:32:38.449Z,12.52
2019-05-05T13:35:07.710Z,12.47
2019-05-05T13:37:36.329Z,12.29
2019-05-05T13:40:06.183Z,12.27
2019-05-05T13:42:34.920Z,12.23
2019-05-05T13:45:14.543Z,12.27
2019-05-05T13:47:43.721Z,12.43
2019-05-05T13:50:26.197Z,12.51
2019-05-05T13:52:54.868Z,12.61
2019-05-05T13:55:24.132Z,12.66
2019-05-05T13:57:54.737Z,12.91
2019-05-05T14:00:25.525Z,13.01
2019-05-05T14:02:54.482Z,13.01
2019-05-05T14:05:24.016Z,12.96
2019-05-05T14:07:53.652Z,13.08
2019-05-05T14:10:23.631Z,13.00
2019-05-05T14:12:52.295Z,12.91
2019-05-05T14:15:23.482Z,12.73
2019-05-05T14:17:54.384Z,12.47
2019-05-05T14:20:23.946Z,12.38
2019-05-05T14:22:54.329Z,12.20
2019-05-05T14:25:46.397Z,12.10
2019-05-05T14:28:18.989Z,12.07
2019-05-05T14:31:14.068Z,12.06
2019-05-05T14:34:14.331Z,12.06
2019-05-05T14:37:05.916Z,12.01
2019-05-05T14:39:36.291Z,11.98
2019-05-05T14:42:09.198Z,11.90
2019-05-05T14:45:34.084Z,11.88
2019-05-05T14:47:44.172Z,11.85
2019-05-05T14:50:19.794Z,11.98
2019-05-05T14:53:08.460Z,12.01
2019-05-05T14:55:45.141Z,12.17
2019-05-05T14:58:20.297Z,12.63
2019-05-05T15:00:53.774Z,12.90
2019-05-05T15:03:24.276Z,12.94
2019-05-05T15:06:17.982Z,13.00
2019-05-05T15:08:58.584Z,12.94
2019-05-05T15:11:50.219Z,12.91
2019-05-05T15:14:20.796Z,12.91
2019-05-05T15:16:54.174Z,12.88
2019-05-05T15:19:25.611Z,12.91
2019-05-05T15:22:05.873Z,12.97
2019-05-05T15:24:34.505Z,13.12
2019-05-05T15:27:03.273Z,13.34
2019-05-05T15:29:34.353Z,13.39
2019-05-05T15:32:04.218Z,13.38
2019-05-05T15:34:34.370Z,13.28
2019-05-05T15:37:03.903Z,13.17
2019-05-05T15:39:33.627Z,12.92
2019-05-05T15:42:04.458Z,12.83
2019-05-05T15:44:34.463Z,12.71
2019-05-05T15:47:03.145Z,12.72
2019-05-05T15:49:31.862Z,12.78
2019-05-05T15:52:00.511Z,12.73
2019-05-05T15:54:29.164Z,12.58
2019-05-05T15:57:05.574Z,12.65
2019-05-05T15:59:28.250Z,12.65
2019-05-05T16:01:56.860Z,12.52
2019-05-05T16:04:25.549Z,12.66
2019-05-05T16:06:54.290Z,12.73
2019-05-05T16:09:22.873Z,12.68
2019-05-05T16:11:51.483Z,12.68
2019-05-05T16:14:20.695Z,12.69
2019-05-05T16:16:56.027Z,12.75
2019-05-05T16:19:31.284Z,12.44
2019-05-05T16:22:03.895Z,12.59
2019-05-05T16:24:36.544Z,12.30
2019-05-05T16:27:18.378Z,12.15
2019-05-05T16:29:35.648Z,12.20
2019-05-05T16:32:18.525Z,12.24
2019-05-05T16:34:34.744Z,12.41
2019-05-05T16:37:03.906Z,12.59
2019-05-05T16:39:33.572Z,12.74
2019-05-05T16:42:02.435Z,12.81
2019-05-05T16:44:33.988Z,12.76
2019-05-05T16:47:04.688Z,12.77
2019-05-05T16:49:37.038Z,12.71
2019-05-05T16:52:14.558Z,12.79
2019-05-05T16:55:06.854Z,13.02
2019-05-05T16:57:39.078Z,12.82
2019-05-05T17:00:12.218Z,12.65
2019-05-05T17:02:44.470Z,12.55
2019-05-05T17:05:14.969Z,12.37
2019-05-05T17:07:46.846Z,12.18
2019-05-05T17:10:16.764Z,12.01
2019-05-05T17:12:49.647Z,12.01
2019-05-05T17:15:37.154Z,11.86
2019-05-05T17:18:32.963Z,11.95
2019-05-05T17:21:17.011Z,12.31
2019-05-05T17:23:48.485Z,12.15
2019-05-05T17:26:26.733Z,12.28
2019-05-05T17:29:06.833Z,12.18
2019-05-05T17:31:39.044Z,12.07
2019-05-05T17:34:10.548Z,11.96
2019-05-05T17:36:46.596Z,11.77
2019-05-05T17:39:20.942Z,11.73
2019-05-05T17:42:07.453Z,11.69
2019-05-05T17:44:58.378Z,11.26
2019-05-05T17:47:37.820Z,11.26
2019-05-05T17:50:19.472Z,11.07
2019-05-05T17:53:11.239Z,11.12
2019-05-05T17:55:44.422Z,11.26
2019-05-05T17:58:15.233Z,11.34
2019-05-05T18:00:51.794Z,11.43
2019-05-05T18:03:23.324Z,11.26
2019-05-05T18:06:18.230Z,11.38
2019-05-05T18:08:56.915Z,11.63
2019-05-05T18:11:45.868Z,11.21
2019-05-05T18:14:19.941Z,10.89
2019-05-05T18:16:50.118Z,10.45
2019-05-05T18:19:19.387Z,10.29
2019-05-05T18:22:02.368Z,9.97
2019-05-05T18:24:33.684Z,9.74
2019-05-05T18:27:05.407Z,9.59
2019-05-05T18:29:36.253Z,9.60
2019-05-05T18:32:13.494Z,9.39
2019-05-05T18:34:43.124Z,9.04
2019-05-05T18:37:14.391Z,8.44
2019-05-05T18:39:45.729Z,8.01
2019-05-05T18:42:21.276Z,7.96
2019-05-05T18:44:57.252Z,8.10
2019-05-05T18:47:28.175Z,8.26
2019-05-05T18:50:01.138Z,8.37
2019-05-05T18:52:31.180Z,8.14
2019-05-05T18:55:05.179Z,8.52
2019-05-05T18:57:38.541Z,8.56
2019-05-05T19:00:14.987Z,8.71
2019-05-05T19:02:50.323Z,8.73
2019-05-05T19:05:41.144Z,8.87
2019-05-05T19:08:21.147Z,8.84
2019-05-05T19:10:58.558Z,8.62
2019-05-05T19:13:31.401Z,8.54
2019-05-05T19:16:00.944Z,8.44
2019-05-05T19:18:33.912Z,8.58
2019-05-05T19:21:20.309Z,8.47
2019-05-05T19:23:51.162Z,8.36
2019-05-05T19:26:24.086Z,8.26
2019-05-05T19:28:54.760Z,8.34
2019-05-05T19:31:37.407Z,8.42
2019-05-05T19:34:18.031Z,8.51
2019-05-05T19:36:48.733Z,8.51
2019-05-05T19:39:21.629Z,8.56
2019-05-05T19:41:54.420Z,8.39
2019-05-05T19:44:26.047Z,8.30
2019-05-05T19:47:13.811Z,8.22
2019-05-05T19:49:47.799Z,8.20
2019-05-05T19:52:23.925Z,8.23
2019-05-05T19:54:57.084Z,8.29
2019-05-05T19:57:30.222Z,8.08
2019-05-05T19:59:59.501Z,8.17
2019-05-05T20:02:34.481Z,8.11
2019-05-05T20:05:04.556Z,8.21
2019-05-05T20:07:36.075Z,8.40
2019-05-05T20:10:05.997Z,8.47
2019-05-05T20:12:46.823Z,8.54
2019-05-05T20:15:25.277Z,8.50
2019-05-05T20:17:54.427Z,8.62
2019-05-05T20:20:27.562Z,8.52
2019-05-05T20:22:58.464Z,8.58
2019-05-05T20:25:27.763Z,8.72
2019-05-05T20:28:07.866Z,8.49
2019-05-05T20:30:45.445Z,8.53
2019-05-05T20:33:28.299Z,8.46
2019-05-05T20:36:03.656Z,8.26
2019-05-05T20:38:36.190Z,8.16
2019-05-05T20:41:11.537Z,8.11
2019-05-05T20:43:44.071Z,8.08
2019-05-05T20:46:16.605Z,7.96
2019-05-05T20:48:47.928Z,8.01
2019-05-05T20:51:20.350Z,7.73
2019-05-05T20:53:53.950Z,7.72
2019-05-05T20:56:23.005Z,7.85
2019-05-05T20:58:54.926Z,8.01
2019-05-05T21:01:26.233Z,7.96
2019-05-05T21:03:58.690Z,8.11
2019-05-05T21:06:31.038Z,7.91
2019-05-05T21:09:01.719Z,7.83
2019-05-05T21:11:32.155Z,7.79
2019-05-05T21:14:04.596Z,7.62
2019-05-05T21:16:40.370Z,7.66
2019-05-05T21:19:13.950Z,7.75
2019-05-05T21:21:45.017Z,7.69
2019-05-05T21:24:23.977Z,7.63
2019-05-05T21:27:25.203Z,7.66
2019-05-05T21:29:56.121Z,7.63
2019-05-05T21:32:25.368Z,7.62
2019-05-05T21:34:54.201Z,7.61
2019-05-05T21:37:24.838Z,7.59
2019-05-05T21:39:55.225Z,7.54
2019-05-05T21:42:25.186Z,7.50
2019-05-05T21:44:58.013Z,7.53
2019-05-05T21:47:29.106Z,7.35
2019-05-05T21:50:03.702Z,6.96
2019-05-05T21:52:40.845Z,6.91
2019-05-05T21:55:43.931Z,6.97
2019-05-05T21:58:35.639Z,7.11
2019-05-05T22:01:14.901Z,7.17
2019-05-05T22:03:46.913Z,7.26
2019-05-05T22:06:15.764Z,7.23
2019-05-05T22:08:46.545Z,7.26
2019-05-05T22:11:17.246Z,7.20
2019-05-05T22:13:47.055Z,7.29
2019-05-05T22:16:27.603Z,7.29
2019-05-05T22:19:01.114Z,7.29
2019-05-05T22:21:35.909Z,7.31
2019-05-05T22:24:20.152Z,7.32
2019-05-05T22:26:48.899Z,7.42
2019-05-05T22:29:17.576Z,7.42
2019-05-05T22:31:46.237Z,7.47
2019-05-05T22:34:14.880Z,7.47
2019-05-05T22:36:44.782Z,7.44
2019-05-05T22:39:16.454Z,7.73
2019-05-05T22:41:44.673Z,7.79
2019-05-05T22:44:14.070Z,7.75
2019-05-05T22:46:43.166Z,7.69
2019-05-05T22:49:11.835Z,7.64
2019-05-05T22:51:40.482Z,7.71
2019-05-05T22:54:09.511Z,7.53
2019-05-05T22:56:38.244Z,7.51
2019-05-05T22:59:06.989Z,7.40
2019-05-05T23:01:35.701Z,7.43
2019-05-05T23:04:43.689Z,7.32
2019-05-05T23:07:28.287Z,7.31
2019-05-05T23:09:56.915Z,7.48
2019-05-05T23:12:25.516Z,7.52
2019-05-05T23:14:54.659Z,7.40
2019-05-05T23:17:34.177Z,7.40
2019-05-05T23:20:21.759Z,7.40
2019-05-05T23:22:59.607Z,7.33
2019-05-05T23:25:33.243Z,7.31
2019-05-05T23:28:03.986Z,7.27
2019-05-05T23:30:41.625Z,7.17
2019-05-05T23:33:02.604Z,7.24
2019-05-05T23:35:31.223Z,7.41
2019-05-05T23:37:59.852Z,7.59
2019-05-05T23:40:28.859Z,7.52
2019-05-05T23:42:57.474Z,7.54
2019-05-05T23:45:26.178Z,7.43
2019-05-05T23:47:54.912Z,7.39
2019-05-05T23:50:23.576Z,7.44
2019-05-05T23:52:54.320Z,7.47
2019-05-05T23:55:23.993Z,7.33
2019-05-05T23:57:54.601Z,7.31
